Stena Germanica — SKPZ — position and weather

sailwx.info

Track history (hours):
 
Tides and Currents Weather Stations Pressure Air Temp Water Temp Dewpoint Dewpoint Depression Visibility Wind Speed Wind Dir Waves Ship Positions

Stena Germanica

Last reported at 2017-Aug-19 18:29 UTC. Time now 2017-Aug-19 18:41 UTC.
Position N 56°10' E 015°38'.

Length 176 m; draft 6.3 m.

Type: Ship (hazmat cat A). MMSI: 265292000.

Date/timePositionNaut miles runAvg speedWind from/ knotsBaromVisibWave heightAir tempDewpointWater temp
2017-Aug-19 18:29N 56°10' E 015°38'0 0.0
2017-Aug-19 17:59N 56°10' E 015°38'0 0.2
2017-Aug-19 17:30N 56°10' E 015°38'611.4
2017-Aug-19 17:00N 56°05' E 015°34'612.5
2017-Aug-19 16:30N 56°01' E 015°43'816.3
2017-Aug-19 16:00N 55°57' E 015°55'816.8
2017-Aug-19 15:30N 55°53' E 016°09'816.7
2017-Aug-19 15:00N 55°48' E 016°21'1716.9
2017-Aug-19 14:00N 55°38' E 016°45'5717.1
2017-Aug-19 10:40N 55°06' E 018°09'517.1
2017-Aug-19 10:21N 55°03' E 018°17'617.2
2017-Aug-19 10:00N 55°00' E 018°25'816.9
2017-Aug-19 09:30N 54°55' E 018°37'917.3
2017-Aug-19 09:00N 54°48' E 018°47'917.1
2017-Aug-19 08:30N 54°42' E 018°57'816.7
2017-Aug-19 08:00N 54°34' E 018°52'815.8
2017-Aug-19 07:30N 54°32' E 018°39'4 8.5
2017-Aug-19 07:00N 54°32' E 018°31'1 1.4
2017-Aug-19 06:28N 54°33' E 018°30'0 0.0
2017-Aug-19 05:58N 54°33' E 018°30'0 0.0
2017-Aug-19 05:29N 54°33' E 018°30'2 3.2
2017-Aug-19 05:01N 54°32' E 018°33'612.1
2017-Aug-19 04:31N 54°32' E 018°43'816.7
2017-Aug-19 04:01N 54°38' E 018°54'816.6
2017-Aug-19 03:31N 54°46' E 018°50'918.9
2017-Aug-19 03:01N 54°53' E 018°40'918.3
2017-Aug-19 02:31N 54°59' E 018°28'918.3
2017-Aug-19 02:01N 55°04' E 018°14'918.6
2017-Aug-19 01:30N 55°09' E 018°01'1818.8
2017-Aug-19 00:31N 55°19' E 017°34'018.5
2017-Aug-19 00:30N 55°20' E 017°33'918.6
2017-Aug-19 00:01N 55°25' E 017°20'1418.6
2017-Aug-18 23:14N 55°32' E 016°58'718.5
2017-Aug-18 22:51N 55°36' E 016°48'618.7
2017-Aug-18 22:30N 55°40' E 016°38'918.8
2017-Aug-18 22:00N 55°45' E 016°24'918.8
2017-Aug-18 21:31N 55°50' E 016°10'918.9
2017-Aug-18 21:01N 55°55' E 015°56'918.6
2017-Aug-18 20:31N 56°01' E 015°43'713.1
2017-Aug-18 20:00N 56°05' E 015°34'510.5
2017-Aug-18 19:30N 56°10' E 015°37'0 0.6
2017-Aug-18 19:00N 56°10' E 015°38'0 0.0
2017-Aug-18 18:30N 56°10' E 015°38'0 0.0
2017-Aug-18 18:00N 56°10' E 015°38'0 0.0
2017-Aug-18 17:30N 56°10' E 015°38'3 5.7
2017-Aug-18 17:00N 56°07' E 015°35'5 9.8
2017-Aug-18 16:30N 56°03' E 015°37'816.5
2017-Aug-18 16:00N 55°58' E 015°50'917.1
2017-Aug-18 15:30N 55°54' E 016°03'917.1
2017-Aug-18 15:00N 55°49' E 016°16'1717.5
2017-Aug-18 14:00N 55°39' E 016°41'917.6
2017-Aug-18 13:30N 55°34' E 016°54'1317.6
2017-Aug-18 12:46N 55°27' E 017°13'2717.8
2017-Aug-18 11:17N 55°12' E 017°52'517.7
2017-Aug-18 11:00N 55°09' E 017°59'917.3
2017-Aug-18 10:30N 55°05' E 018°12'917.4
2017-Aug-18 10:00N 55°01' E 018°25'917.0
2017-Aug-18 09:30N 54°56' E 018°37'917.6
2017-Aug-18 09:00N 54°49' E 018°46'917.5
2017-Aug-18 08:30N 54°42' E 018°56'816.1
2017-Aug-18 08:00N 54°34' E 018°52'815.4
2017-Aug-18 07:30N 54°32' E 018°40'5 9.7
2017-Aug-18 07:00N 54°32' E 018°31'1 1.5
2017-Aug-18 06:28N 54°33' E 018°30'0 0.0
2017-Aug-18 05:58N 54°33' E 018°30'0 0.0
2017-Aug-18 05:30N 54°33' E 018°30'1 2.8
2017-Aug-18 05:00N 54°32' E 018°32'510.9
2017-Aug-18 04:30N 54°32' E 018°42'815.7
2017-Aug-18 04:00N 54°36' E 018°53'815.9
2017-Aug-18 03:30N 54°44' E 018°53'917.7
2017-Aug-18 03:00N 54°51' E 018°43'917.6
2017-Aug-18 02:30N 54°58' E 018°33'917.4
2017-Aug-18 02:00N 55°02' E 018°20'918.0
2017-Aug-18 01:30N 55°07' E 018°07'917.9
2017-Aug-18 00:59N 55°12' E 017°53'2018.0
2017-Aug-17 23:51N 55°24' E 017°24'1418.1
2017-Aug-17 23:06N 55°31' E 017°03'218.2
2017-Aug-17 23:00N 55°32' E 017°01'918.1
2017-Aug-17 22:30N 55°37' E 016°47'918.3
2017-Aug-17 22:00N 55°42' E 016°34'918.2
2017-Aug-17 21:30N 55°47' E 016°20'917.4
2017-Aug-17 21:00N 55°51' E 016°07'816.2
2017-Aug-17 20:30N 55°56' E 015°55'816.4
2017-Aug-17 20:00N 56°00' E 015°43'612.7
2017-Aug-17 19:30N 56°04' E 015°34'511.0
2017-Aug-17 19:01N 56°10' E 015°37'0 0.6
2017-Aug-17 18:28N 56°10' E 015°38'0 0.0
2017-Aug-17 17:58N 56°10' E 015°38'0 0.0
2017-Aug-17 17:29N 56°10' E 015°38'3 6.9
2017-Aug-17 17:00N 56°07' E 015°35'713.5
2017-Aug-17 16:30N 56°01' E 015°42'816.7
2017-Aug-17 16:01N 55°57' E 015°54'917.2
2017-Aug-17 15:31N 55°52' E 016°06'917.3
2017-Aug-17 15:01N 55°47' E 016°19'917.3
2017-Aug-17 14:30N 55°42' E 016°32'917.3
2017-Aug-17 14:00N 55°37' E 016°45'917.2
2017-Aug-17 13:31N 55°33' E 016°58'917.1
2017-Aug-17 13:00N 55°28' E 017°10'917.2
2017-Aug-17 12:31N 55°23' E 017°23'917.4
2017-Aug-17 12:00N 55°19' E 017°36'917.4
2017-Aug-17 11:30N 55°14' E 017°49'917.3
2017-Aug-17 11:00N 55°10' E 018°02'917.4
2017-Aug-17 10:31N 55°05' E 018°15'917.3
2017-Aug-17 10:00N 55°00' E 018°27'917.1
2017-Aug-17 09:31N 54°55' E 018°39'917.5
2017-Aug-17 09:01N 54°48' E 018°48'917.3
2017-Aug-17 08:31N 54°41' E 018°57'816.4
2017-Aug-17 08:01N 54°34' E 018°51'713.9
2017-Aug-17 07:31N 54°32' E 018°40'510.5
2017-Aug-17 07:00N 54°33' E 018°31'0 0.5
2017-Aug-17 06:28N 54°33' E 018°30'0 0.0
2017-Aug-17 05:58N 54°33' E 018°30'0 0.0
2017-Aug-17 05:30N 54°33' E 018°30'2 4.4
2017-Aug-17 05:00N 54°32' E 018°34'714.4
2017-Aug-17 04:30N 54°32' E 018°46'815.8
2017-Aug-17 04:00N 54°39' E 018°55'815.7
2017-Aug-17 03:30N 54°46' E 018°50'816.6
2017-Aug-17 03:00N 54°52' E 018°41'816.4
2017-Aug-17 02:30N 54°59' E 018°32'816.6
2017-Aug-17 02:00N 55°03' E 018°20'916.6
2017-Aug-17 01:28N 55°08' E 018°06'816.7
2017-Aug-17 00:59N 55°12' E 017°54'3216.9
2017-Aug-16 23:06N 55°30' E 017°07'217.0
2017-Aug-16 23:00N 55°30' E 017°05'816.6
2017-Aug-16 22:30N 55°35' E 016°53'816.9
2017-Aug-16 22:00N 55°40' E 016°41'917.3
2017-Aug-16 21:30N 55°45' E 016°28'917.1
2017-Aug-16 21:00N 55°50' E 016°15'817.0
2017-Aug-16 20:30N 55°54' E 016°02'816.8
2017-Aug-16 20:00N 55°58' E 015°49'816.7
2017-Aug-16 19:30N 56°03' E 015°37'713.5
2017-Aug-16 19:01N 56°10' E 015°37'0 0.9
2017-Aug-16 18:29N 56°10' E 015°38'0 0.0
2017-Aug-16 17:59N 56°10' E 015°38'0 0.0
2017-Aug-16 17:30N 56°10' E 015°38'5 9.3
2017-Aug-16 17:00N 56°06' E 015°34'714.8
2017-Aug-16 16:30N 56°00' E 015°43'815.9
2017-Aug-16 16:00N 55°57' E 015°56'816.0
2017-Aug-16 15:30N 55°52' E 016°08'816.3
2017-Aug-16 15:00N 55°47' E 016°19'816.3
2017-Aug-16 14:30N 55°43' E 016°31'816.3
2017-Aug-16 14:00N 55°38' E 016°43'5016.5
2017-Aug-16 10:57N 55°10' E 017°57'817.4
2017-Aug-16 10:30N 55°06' E 018°09'917.7
2017-Aug-16 10:00N 55°01' E 018°22'917.6
2017-Aug-16 09:30N 54°56' E 018°34'917.9
2017-Aug-16 09:00N 54°50' E 018°45'918.1
2017-Aug-16 08:30N 54°43' E 018°55'815.8
2017-Aug-16 08:00N 54°35' E 018°53'815.5
2017-Aug-16 07:30N 54°32' E 018°41'611.6
2017-Aug-16 07:01N 54°32' E 018°32'1 1.6
2017-Aug-16 06:30N 54°33' E 018°30'0 0.0
2017-Aug-16 06:00N 54°33' E 018°30'0 0.1
2017-Aug-16 05:30N 54°33' E 018°30'2 4.7
2017-Aug-16 05:00N 54°32' E 018°34'714.8
2017-Aug-16 04:31N 54°32' E 018°47'816.7
2017-Aug-16 04:00N 54°39' E 018°55'816.2
2017-Aug-16 03:30N 54°47' E 018°50'917.4
2017-Aug-16 03:00N 54°53' E 018°40'917.5
2017-Aug-16 02:30N 54°59' E 018°29'917.4
2017-Aug-16 02:00N 55°04' E 018°16'917.5
2017-Aug-16 01:30N 55°09' E 018°03'917.6
2017-Aug-16 01:00N 55°13' E 017°50'917.6
2017-Aug-16 00:30N 55°18' E 017°37'917.6
2017-Aug-16 00:00N 55°23' E 017°24'917.6
2017-Aug-15 23:30N 55°28' E 017°11'917.5
2017-Aug-15 23:00N 55°33' E 016°59'917.5
2017-Aug-15 22:30N 55°38' E 016°46'917.6
2017-Aug-15 22:00N 55°42' E 016°32'917.9
2017-Aug-15 21:30N 55°47' E 016°19'917.5
2017-Aug-15 21:00N 55°52' E 016°06'816.5
2017-Aug-15 20:30N 55°57' E 015°54'816.3
2017-Aug-15 20:00N 56°01' E 015°42'713.7
2017-Aug-15 19:30N 56°07' E 015°35'4 6.9
2017-Aug-15 19:00N 56°10' E 015°38'0 0.0
2017-Aug-15 18:30N 56°10' E 015°38'0 0.0
2017-Aug-15 18:00N 56°10' E 015°38'0 0.0
2017-Aug-15 17:31N 56°10' E 015°38'4 8.8
2017-Aug-15 17:00N 56°06' E 015°34'815.1
2017-Aug-15 16:30N 56°01' E 015°44'816.7
2017-Aug-15 16:00N 55°56' E 015°56'917.0
2017-Aug-15 15:30N 55°51' E 016°09'917.1
2017-Aug-15 15:00N 55°46' E 016°21'816.8
2017-Aug-15 14:30N 55°42' E 016°34'817.0
2017-Aug-15 14:00N 55°37' E 016°46'816.8
2017-Aug-15 13:30N 55°32' E 016°58'816.8
2017-Aug-15 13:00N 55°27' E 017°11'917.2
2017-Aug-15 12:29N 55°23' E 017°24'817.3
2017-Aug-15 12:00N 55°18' E 017°37'1317.3
2017-Aug-15 11:16N 55°11' E 017°55'817.2
2017-Aug-15 10:49N 55°07' E 018°07'717.4
2017-Aug-15 10:26N 55°03' E 018°17'717.3
2017-Aug-15 10:00N 54°60' E 018°28'917.1
2017-Aug-15 09:30N 54°54' E 018°39'917.1
2017-Aug-15 09:00N 54°47' E 018°48'917.2
2017-Aug-15 08:31N 54°41' E 018°58'816.5
2017-Aug-15 08:00N 54°33' E 018°51'815.2
2017-Aug-15 07:30N 54°32' E 018°38'5 9.1
2017-Aug-15 07:00N 54°33' E 018°30'0 0.2
2017-Aug-15 06:30N 54°33' E 018°30'0 0.0
2017-Aug-15 06:00N 54°33' E 018°30'0 0.0
2017-Aug-15 05:30N 54°33' E 018°30'2 4.9
2017-Aug-15 05:00N 54°32' E 018°34'714.9
2017-Aug-15 04:30N 54°32' E 018°47'917.0
2017-Aug-15 04:00N 54°39' E 018°55'816.6
2017-Aug-15 03:30N 54°47' E 018°49'917.6
2017-Aug-15 03:00N 54°53' E 018°39'917.0
2017-Aug-15 02:30N 54°59' E 018°28'917.2
2017-Aug-15 02:00N 55°04' E 018°16'917.2
2017-Aug-15 01:30N 55°09' E 018°03'9817.3
2017-Aug-14 19:50N 56°02' E 015°38'513.8
2017-Aug-14 19:26N 56°08' E 015°35'3 6.2
2017-Aug-14 19:00N 56°10' E 015°38'0 0.0
2017-Aug-14 18:29N 56°10' E 015°38'0 0.0
2017-Aug-14 17:59N 56°10' E 015°38'0 0.0
2017-Aug-14 17:29N 56°10' E 015°38'0 0.0
2017-Aug-14 17:01N 56°10' E 015°38'4 9.0
2017-Aug-14 16:31N 56°06' E 015°34'10917.7
2017-Aug-14 10:18N 55°05' E 018°15'518.2
2017-Aug-14 10:01N 55°02' E 018°23'917.7
2017-Aug-14 09:31N 54°56' E 018°35'918.0
2017-Aug-14 09:01N 54°49' E 018°45'918.3
2017-Aug-14 08:31N 54°43' E 018°57'816.3
2017-Aug-14 08:01N 54°35' E 018°54'815.6
2017-Aug-14 07:31N 54°32' E 018°42'612.4
2017-Aug-14 07:00N 54°32' E 018°31'1 1.4
2017-Aug-14 06:30N 54°33' E 018°30'0 0.0
2017-Aug-14 06:00N 54°33' E 018°30'0 0.0
2017-Aug-14 05:31N 54°33' E 018°30'2 4.1
2017-Aug-14 05:00N 54°32' E 018°34'714.2
2017-Aug-14 04:31N 54°32' E 018°46'815.7
2017-Aug-14 04:01N 54°38' E 018°54'714.2
2017-Aug-14 03:31N 54°45' E 018°51'816.9
2017-Aug-14 03:00N 54°52' E 018°42'816.7
2017-Aug-14 02:31N 54°58' E 018°32'917.0
2017-Aug-14 02:01N 55°03' E 018°20'817.0
2017-Aug-14 01:31N 55°07' E 018°07'917.0
2017-Aug-14 01:00N 55°12' E 017°55'9616.4
2017-Aug-13 19:09N 56°07' E 015°35'213.8
2017-Aug-13 19:01N 56°09' E 015°37'1 1.8
2017-Aug-13 18:29N 56°10' E 015°38'0 0.0
2017-Aug-13 17:59N 56°10' E 015°38'0 0.0
2017-Aug-13 17:31N 56°10' E 015°38'4 8.7
2017-Aug-13 17:00N 56°06' E 015°34'10617.3
2017-Aug-13 10:50N 55°06' E 018°10'616.9
2017-Aug-13 10:30N 55°03' E 018°18'816.4
2017-Aug-13 10:00N 54°58' E 018°30'816.4
2017-Aug-13 09:31N 54°53' E 018°41'816.8
2017-Aug-13 09:01N 54°47' E 018°50'815.8
2017-Aug-13 08:31N 54°40' E 018°58'816.9
2017-Aug-13 08:01N 54°33' E 018°50'815.3
2017-Aug-13 07:30N 54°32' E 018°37'4 7.5
2017-Aug-13 06:58N 54°33' E 018°30'0 0.0
2017-Aug-13 06:28N 54°33' E 018°30'0 0.0
2017-Aug-13 05:58N 54°33' E 018°30'0 0.0
2017-Aug-13 05:30N 54°33' E 018°30'2 4.3
2017-Aug-13 05:00N 54°32' E 018°34'713.9
2017-Aug-13 04:30N 54°32' E 018°46'815.1
2017-Aug-13 04:00N 54°38' E 018°54'714.8
2017-Aug-13 03:30N 54°45' E 018°53'816.3
2017-Aug-13 03:00N 54°51' E 018°44'816.1
2017-Aug-13 02:30N 54°57' E 018°34'917.1
2017-Aug-13 02:00N 55°02' E 018°22'1017.5
2017-Aug-13 01:25N 55°08' E 018°07'817.5
2017-Aug-13 00:57N 55°12' E 017°55'9616.5
2017-Aug-12 19:07N 56°07' E 015°35'215.1
2017-Aug-12 19:01N 56°09' E 015°37'1 2.5
2017-Aug-12 18:28N 56°10' E 015°38'0 0.0
2017-Aug-12 17:58N 56°10' E 015°38'0 0.0
2017-Aug-12 17:30N 56°10' E 015°38'10815.6
2017-Aug-12 10:37N 55°06' E 018°11'216.3
2017-Aug-12 10:29N 55°04' E 018°14'816.4
2017-Aug-12 10:01N 55°00' E 018°25'917.1
2017-Aug-12 09:31N 54°55' E 018°37'917.3
2017-Aug-12 09:01N 54°49' E 018°47'917.3
2017-Aug-12 08:31N 54°42' E 018°56'815.9
2017-Aug-12 08:01N 54°34' E 018°52'815.2
2017-Aug-12 07:31N 54°32' E 018°40'510.5
2017-Aug-12 07:00N 54°33' E 018°31'0 0.4
2017-Aug-12 06:29N 54°33' E 018°30'0 0.0
2017-Aug-12 05:59N 54°33' E 018°30'0 0.0
2017-Aug-12 05:30N 54°33' E 018°30'2 4.5
2017-Aug-12 05:00N 54°32' E 018°34'815.1
2017-Aug-12 04:31N 54°33' E 018°47'816.3
2017-Aug-12 04:01N 54°39' E 018°55'815.2
2017-Aug-12 03:31N 54°46' E 018°50'816.7
2017-Aug-12 03:01N 54°53' E 018°41'816.5
2017-Aug-12 02:31N 54°59' E 018°32'816.4
2017-Aug-12 02:00N 55°03' E 018°20'917.3
2017-Aug-12 01:31N 55°08' E 018°07'917.3
2017-Aug-12 01:01N 55°13' E 017°54'9616.4
2017-Aug-11 19:11N 56°08' E 015°36'213.3
2017-Aug-11 19:01N 56°10' E 015°37'0 0.7
2017-Aug-11 18:29N 56°10' E 015°38'0 0.0
2017-Aug-11 17:59N 56°10' E 015°38'0 0.0
2017-Aug-11 17:30N 56°10' E 015°38'510.1
2017-Aug-11 17:00N 56°05' E 015°34'815.6
2017-Aug-11 16:30N 56°00' E 015°44'816.6
2017-Aug-11 16:00N 55°56' E 015°57'917.1
2017-Aug-11 15:30N 55°51' E 016°10'917.3
2017-Aug-11 15:00N 55°46' E 016°22'917.1
2017-Aug-11 14:30N 55°41' E 016°35'2716.7
2017-Aug-11 12:52N 55°26' E 017°15'615.9
2017-Aug-11 12:29N 55°23' E 017°24'816.7
2017-Aug-11 12:00N 55°18' E 017°36'816.7
2017-Aug-11 11:30N 55°14' E 017°48'1316.6
2017-Aug-11 10:44N 55°07' E 018°07'716.9
2017-Aug-11 10:19N 55°03' E 018°17'517.0
2017-Aug-11 10:00N 55°00' E 018°25'917.2
2017-Aug-11 09:30N 54°56' E 018°38'917.4
2017-Aug-11 09:00N 54°49' E 018°47'918.1
2017-Aug-11 08:30N 54°42' E 018°58'917.0
2017-Aug-11 08:00N 54°34' E 018°53'815.5
2017-Aug-11 07:30N 54°32' E 018°40'510.4
2017-Aug-11 07:00N 54°32' E 018°31'1 1.1
2017-Aug-11 06:30N 54°33' E 018°30'0 0.0
2017-Aug-11 06:00N 54°33' E 018°30'0 0.0
2017-Aug-11 05:30N 54°33' E 018°30'2 4.7
2017-Aug-11 05:00N 54°32' E 018°34'815.2
2017-Aug-11 04:30N 54°32' E 018°47'816.7
2017-Aug-11 04:00N 54°39' E 018°56'815.4
2017-Aug-11 03:30N 54°46' E 018°49'816.4
2017-Aug-11 03:00N 54°51' E 018°39'816.3
2017-Aug-11 02:30N 54°57' E 018°29'816.7
2017-Aug-11 02:00N 55°03' E 018°18'917.1
2017-Aug-11 01:30N 55°08' E 018°06'917.0
2017-Aug-11 01:00N 55°12' E 017°53'917.1
2017-Aug-11 00:30N 55°17' E 017°40'817.1
2017-Aug-11 00:00N 55°22' E 017°28'2216.7
2017-Aug-10 22:40N 55°34' E 016°55'316.7
2017-Aug-10 22:30N 55°36' E 016°51'1917.0
2017-Aug-10 21:23N 55°46' E 016°23'2417.1
2017-Aug-10 20:00N 55°59' E 015°48'1114.2
2017-Aug-10 19:14N 56°07' E 015°35'211.0
2017-Aug-10 19:01N 56°10' E 015°37'0 0.7
2017-Aug-10 18:28N 56°10' E 015°38'0 0.0
2017-Aug-10 17:58N 56°10' E 015°38'0 0.0
2017-Aug-10 17:31N 56°10' E 015°38'510.0
2017-Aug-10 17:00N 56°05' E 015°34'1115.7
2017-Aug-10 16:19N 55°59' E 015°49'516.6
2017-Aug-10 15:59N 55°56' E 015°58'916.7
2017-Aug-10 15:28N 55°51' E 016°11'816.6
2017-Aug-10 15:00N 55°47' E 016°22'816.6
2017-Aug-10 14:30N 55°42' E 016°34'1117.0
2017-Aug-10 13:53N 55°36' E 016°49'616.7
2017-Aug-10 13:30N 55°33' E 016°59'916.8
2017-Aug-10 12:58N 55°28' E 017°12'817.0
2017-Aug-10 12:30N 55°23' E 017°24'917.2
2017-Aug-10 12:00N 55°18' E 017°36'917.2
2017-Aug-10 11:30N 55°14' E 017°49'816.8
2017-Aug-10 11:00N 55°09' E 018°01'917.1
2017-Aug-10 10:30N 55°05' E 018°14'816.7
2017-Aug-10 10:00N 54°60' E 018°26'816.8
2017-Aug-10 09:30N 54°55' E 018°38'917.4
2017-Aug-10 09:00N 54°48' E 018°47'917.4
2017-Aug-10 08:30N 54°42' E 018°57'815.8
2017-Aug-10 08:00N 54°34' E 018°52'714.4
2017-Aug-10 07:30N 54°32' E 018°40'510.6
2017-Aug-10 07:00N 54°32' E 018°31'1 1.4
2017-Aug-10 06:29N 54°33' E 018°30'0 0.0
2017-Aug-10 05:59N 54°33' E 018°30'0 0.0
2017-Aug-10 05:30N 54°33' E 018°30'2 3.9
2017-Aug-10 05:01N 54°32' E 018°33'815.0
2017-Aug-10 04:30N 54°32' E 018°46'816.4
2017-Aug-10 04:01N 54°39' E 018°55'816.1
2017-Aug-10 03:30N 54°46' E 018°50'917.3
2017-Aug-10 03:01N 54°53' E 018°40'917.0
2017-Aug-10 02:30N 54°59' E 018°29'917.1
2017-Aug-10 02:00N 55°03' E 018°17'917.2
2017-Aug-10 01:30N 55°08' E 018°04'917.1
2017-Aug-10 01:00N 55°13' E 017°52'917.2
2017-Aug-10 00:31N 55°18' E 017°39'917.4
2017-Aug-10 00:00N 55°22' E 017°27'917.1
2017-Aug-09 23:30N 55°27' E 017°14'816.8
2017-Aug-09 23:00N 55°32' E 017°02'816.8
2017-Aug-09 22:30N 55°37' E 016°50'4817.1
2017-Aug-09 19:41N 56°03' E 015°37'512.7
2017-Aug-09 19:17N 56°08' E 015°36'2 8.8
2017-Aug-09 19:00N 56°10' E 015°38'0 0.2
2017-Aug-09 18:30N 56°10' E 015°38'  
Track history (hours):
 
Tides and Currents Weather Stations Pressure Air Temp Water Temp Dewpoint Dewpoint Depression Visibility Wind Speed Wind Dir Waves Ship Positions

Stena Germanica

Last reported at 2017-Aug-19 18:29 UTC. Time now 2017-Aug-19 18:41 UTC.
Position N 56°10' E 015°38'.

Length 176 m; draft 6.3 m.

Type: Ship (hazmat cat A). MMSI: 265292000.

Date/timePositionNaut miles runAvg speedWind from/ knotsBaromVisibWave heightAir tempDewpointWater temp
2017-Aug-19 18:29N 56°10' E 015°38'0 0.0
2017-Aug-19 17:59N 56°10' E 015°38'0 0.2
2017-Aug-19 17:30N 56°10' E 015°38'611.4
2017-Aug-19 17:00N 56°05' E 015°34'612.5
2017-Aug-19 16:30N 56°01' E 015°43'816.3
2017-Aug-19 16:00N 55°57' E 015°55'816.8
2017-Aug-19 15:30N 55°53' E 016°09'816.7
2017-Aug-19 15:00N 55°48' E 016°21'1716.9
2017-Aug-19 14:00N 55°38' E 016°45'5717.1
2017-Aug-19 10:40N 55°06' E 018°09'517.1
2017-Aug-19 10:21N 55°03' E 018°17'617.2
2017-Aug-19 10:00N 55°00' E 018°25'816.9
2017-Aug-19 09:30N 54°55' E 018°37'917.3
2017-Aug-19 09:00N 54°48' E 018°47'917.1
2017-Aug-19 08:30N 54°42' E 018°57'816.7
2017-Aug-19 08:00N 54°34' E 018°52'815.8
2017-Aug-19 07:30N 54°32' E 018°39'4 8.5
2017-Aug-19 07:00N 54°32' E 018°31'1 1.4
2017-Aug-19 06:28N 54°33' E 018°30'0 0.0
2017-Aug-19 05:58N 54°33' E 018°30'0 0.0
2017-Aug-19 05:29N 54°33' E 018°30'2 3.2
2017-Aug-19 05:01N 54°32' E 018°33'612.1
2017-Aug-19 04:31N 54°32' E 018°43'816.7
2017-Aug-19 04:01N 54°38' E 018°54'816.6
2017-Aug-19 03:31N 54°46' E 018°50'918.9
2017-Aug-19 03:01N 54°53' E 018°40'918.3
2017-Aug-19 02:31N 54°59' E 018°28'918.3
2017-Aug-19 02:01N 55°04' E 018°14'918.6
2017-Aug-19 01:30N 55°09' E 018°01'1818.8
2017-Aug-19 00:31N 55°19' E 017°34'018.5
2017-Aug-19 00:30N 55°20' E 017°33'918.6
2017-Aug-19 00:01N 55°25' E 017°20'1418.6
2017-Aug-18 23:14N 55°32' E 016°58'718.5
2017-Aug-18 22:51N 55°36' E 016°48'618.7
2017-Aug-18 22:30N 55°40' E 016°38'918.8
2017-Aug-18 22:00N 55°45' E 016°24'918.8
2017-Aug-18 21:31N 55°50' E 016°10'918.9
2017-Aug-18 21:01N 55°55' E 015°56'918.6
2017-Aug-18 20:31N 56°01' E 015°43'713.1
2017-Aug-18 20:00N 56°05' E 015°34'510.5
2017-Aug-18 19:30N 56°10' E 015°37'0 0.6
2017-Aug-18 19:00N 56°10' E 015°38'0 0.0
2017-Aug-18 18:30N 56°10' E 015°38'0 0.0
2017-Aug-18 18:00N 56°10' E 015°38'0 0.0
2017-Aug-18 17:30N 56°10' E 015°38'3 5.7
2017-Aug-18 17:00N 56°07' E 015°35'5 9.8
2017-Aug-18 16:30N 56°03' E 015°37'816.5
2017-Aug-18 16:00N 55°58' E 015°50'917.1
2017-Aug-18 15:30N 55°54' E 016°03'917.1
2017-Aug-18 15:00N 55°49' E 016°16'1717.5
2017-Aug-18 14:00N 55°39' E 016°41'917.6
2017-Aug-18 13:30N 55°34' E 016°54'1317.6
2017-Aug-18 12:46N 55°27' E 017°13'2717.8
2017-Aug-18 11:17N 55°12' E 017°52'517.7
2017-Aug-18 11:00N 55°09' E 017°59'917.3
2017-Aug-18 10:30N 55°05' E 018°12'917.4
2017-Aug-18 10:00N 55°01' E 018°25'917.0
2017-Aug-18 09:30N 54°56' E 018°37'917.6
2017-Aug-18 09:00N 54°49' E 018°46'917.5
2017-Aug-18 08:30N 54°42' E 018°56'816.1
2017-Aug-18 08:00N 54°34' E 018°52'815.4
2017-Aug-18 07:30N 54°32' E 018°40'5 9.7
2017-Aug-18 07:00N 54°32' E 018°31'1 1.5
2017-Aug-18 06:28N 54°33' E 018°30'0 0.0
2017-Aug-18 05:58N 54°33' E 018°30'0 0.0
2017-Aug-18 05:30N 54°33' E 018°30'1 2.8
2017-Aug-18 05:00N 54°32' E 018°32'510.9
2017-Aug-18 04:30N 54°32' E 018°42'815.7
2017-Aug-18 04:00N 54°36' E 018°53'815.9
2017-Aug-18 03:30N 54°44' E 018°53'917.7
2017-Aug-18 03:00N 54°51' E 018°43'917.6
2017-Aug-18 02:30N 54°58' E 018°33'917.4
2017-Aug-18 02:00N 55°02' E 018°20'918.0
2017-Aug-18 01:30N 55°07' E 018°07'917.9
2017-Aug-18 00:59N 55°12' E 017°53'2018.0
2017-Aug-17 23:51N 55°24' E 017°24'1418.1
2017-Aug-17 23:06N 55°31' E 017°03'218.2
2017-Aug-17 23:00N 55°32' E 017°01'918.1
2017-Aug-17 22:30N 55°37' E 016°47'918.3
2017-Aug-17 22:00N 55°42' E 016°34'918.2
2017-Aug-17 21:30N 55°47' E 016°20'917.4
2017-Aug-17 21:00N 55°51' E 016°07'816.2
2017-Aug-17 20:30N 55°56' E 015°55'816.4
2017-Aug-17 20:00N 56°00' E 015°43'612.7
2017-Aug-17 19:30N 56°04' E 015°34'511.0
2017-Aug-17 19:01N 56°10' E 015°37'0 0.6
2017-Aug-17 18:28N 56°10' E 015°38'0 0.0
2017-Aug-17 17:58N 56°10' E 015°38'0 0.0
2017-Aug-17 17:29N 56°10' E 015°38'3 6.9
2017-Aug-17 17:00N 56°07' E 015°35'713.5
2017-Aug-17 16:30N 56°01' E 015°42'816.7
2017-Aug-17 16:01N 55°57' E 015°54'917.2
2017-Aug-17 15:31N 55°52' E 016°06'917.3
2017-Aug-17 15:01N 55°47' E 016°19'917.3
2017-Aug-17 14:30N 55°42' E 016°32'917.3
2017-Aug-17 14:00N 55°37' E 016°45'917.2
2017-Aug-17 13:31N 55°33' E 016°58'917.1
2017-Aug-17 13:00N 55°28' E 017°10'917.2
2017-Aug-17 12:31N 55°23' E 017°23'917.4
2017-Aug-17 12:00N 55°19' E 017°36'917.4
2017-Aug-17 11:30N 55°14' E 017°49'917.3
2017-Aug-17 11:00N 55°10' E 018°02'917.4
2017-Aug-17 10:31N 55°05' E 018°15'917.3
2017-Aug-17 10:00N 55°00' E 018°27'917.1
2017-Aug-17 09:31N 54°55' E 018°39'917.5
2017-Aug-17 09:01N 54°48' E 018°48'917.3
2017-Aug-17 08:31N 54°41' E 018°57'816.4
2017-Aug-17 08:01N 54°34' E 018°51'713.9
2017-Aug-17 07:31N 54°32' E 018°40'510.5
2017-Aug-17 07:00N 54°33' E 018°31'0 0.5
2017-Aug-17 06:28N 54°33' E 018°30'0 0.0
2017-Aug-17 05:58N 54°33' E 018°30'0 0.0
2017-Aug-17 05:30N 54°33' E 018°30'2 4.4
2017-Aug-17 05:00N 54°32' E 018°34'714.4
2017-Aug-17 04:30N 54°32' E 018°46'815.8
2017-Aug-17 04:00N 54°39' E 018°55'815.7
2017-Aug-17 03:30N 54°46' E 018°50'816.6
2017-Aug-17 03:00N 54°52' E 018°41'816.4
2017-Aug-17 02:30N 54°59' E 018°32'816.6
2017-Aug-17 02:00N 55°03' E 018°20'916.6
2017-Aug-17 01:28N 55°08' E 018°06'816.7
2017-Aug-17 00:59N 55°12' E 017°54'3216.9
2017-Aug-16 23:06N 55°30' E 017°07'217.0
2017-Aug-16 23:00N 55°30' E 017°05'816.6
2017-Aug-16 22:30N 55°35' E 016°53'816.9
2017-Aug-16 22:00N 55°40' E 016°41'917.3
2017-Aug-16 21:30N 55°45' E 016°28'917.1
2017-Aug-16 21:00N 55°50' E 016°15'817.0
2017-Aug-16 20:30N 55°54' E 016°02'816.8
2017-Aug-16 20:00N 55°58' E 015°49'816.7
2017-Aug-16 19:30N 56°03' E 015°37'713.5
2017-Aug-16 19:01N 56°10' E 015°37'0 0.9
2017-Aug-16 18:29N 56°10' E 015°38'0 0.0
2017-Aug-16 17:59N 56°10' E 015°38'0 0.0
2017-Aug-16 17:30N 56°10' E 015°38'5 9.3
2017-Aug-16 17:00N 56°06' E 015°34'714.8
2017-Aug-16 16:30N 56°00' E 015°43'815.9
2017-Aug-16 16:00N 55°57' E 015°56'816.0
2017-Aug-16 15:30N 55°52' E 016°08'816.3
2017-Aug-16 15:00N 55°47' E 016°19'816.3
2017-Aug-16 14:30N 55°43' E 016°31'816.3
2017-Aug-16 14:00N 55°38' E 016°43'5016.5
2017-Aug-16 10:57N 55°10' E 017°57'817.4
2017-Aug-16 10:30N 55°06' E 018°09'917.7
2017-Aug-16 10:00N 55°01' E 018°22'917.6
2017-Aug-16 09:30N 54°56' E 018°34'917.9
2017-Aug-16 09:00N 54°50' E 018°45'918.1
2017-Aug-16 08:30N 54°43' E 018°55'815.8
2017-Aug-16 08:00N 54°35' E 018°53'815.5
2017-Aug-16 07:30N 54°32' E 018°41'611.6
2017-Aug-16 07:01N 54°32' E 018°32'1 1.6
2017-Aug-16 06:30N 54°33' E 018°30'0 0.0
2017-Aug-16 06:00N 54°33' E 018°30'0 0.1
2017-Aug-16 05:30N 54°33' E 018°30'2 4.7
2017-Aug-16 05:00N 54°32' E 018°34'714.8
2017-Aug-16 04:31N 54°32' E 018°47'816.7
2017-Aug-16 04:00N 54°39' E 018°55'816.2
2017-Aug-16 03:30N 54°47' E 018°50'917.4
2017-Aug-16 03:00N 54°53' E 018°40'917.5
2017-Aug-16 02:30N 54°59' E 018°29'917.4
2017-Aug-16 02:00N 55°04' E 018°16'917.5
2017-Aug-16 01:30N 55°09' E 018°03'917.6
2017-Aug-16 01:00N 55°13' E 017°50'917.6
2017-Aug-16 00:30N 55°18' E 017°37'917.6
2017-Aug-16 00:00N 55°23' E 017°24'917.6
2017-Aug-15 23:30N 55°28' E 017°11'917.5
2017-Aug-15 23:00N 55°33' E 016°59'917.5
2017-Aug-15 22:30N 55°38' E 016°46'917.6
2017-Aug-15 22:00N 55°42' E 016°32'917.9
2017-Aug-15 21:30N 55°47' E 016°19'917.5
2017-Aug-15 21:00N 55°52' E 016°06'816.5
2017-Aug-15 20:30N 55°57' E 015°54'816.3
2017-Aug-15 20:00N 56°01' E 015°42'713.7
2017-Aug-15 19:30N 56°07' E 015°35'4 6.9
2017-Aug-15 19:00N 56°10' E 015°38'0 0.0
2017-Aug-15 18:30N 56°10' E 015°38'0 0.0
2017-Aug-15 18:00N 56°10' E 015°38'0 0.0
2017-Aug-15 17:31N 56°10' E 015°38'4 8.8
2017-Aug-15 17:00N 56°06' E 015°34'815.1
2017-Aug-15 16:30N 56°01' E 015°44'816.7
2017-Aug-15 16:00N 55°56' E 015°56'917.0
2017-Aug-15 15:30N 55°51' E 016°09'917.1
2017-Aug-15 15:00N 55°46' E 016°21'816.8
2017-Aug-15 14:30N 55°42' E 016°34'817.0
2017-Aug-15 14:00N 55°37' E 016°46'816.8
2017-Aug-15 13:30N 55°32' E 016°58'816.8
2017-Aug-15 13:00N 55°27' E 017°11'917.2
2017-Aug-15 12:29N 55°23' E 017°24'817.3
2017-Aug-15 12:00N 55°18' E 017°37'1317.3
2017-Aug-15 11:16N 55°11' E 017°55'817.2
2017-Aug-15 10:49N 55°07' E 018°07'717.4
2017-Aug-15 10:26N 55°03' E 018°17'717.3
2017-Aug-15 10:00N 54°60' E 018°28'917.1
2017-Aug-15 09:30N 54°54' E 018°39'917.1
2017-Aug-15 09:00N 54°47' E 018°48'917.2
2017-Aug-15 08:31N 54°41' E 018°58'816.5
2017-Aug-15 08:00N 54°33' E 018°51'815.2
2017-Aug-15 07:30N 54°32' E 018°38'5 9.1
2017-Aug-15 07:00N 54°33' E 018°30'0 0.2
2017-Aug-15 06:30N 54°33' E 018°30'0 0.0
2017-Aug-15 06:00N 54°33' E 018°30'0 0.0
2017-Aug-15 05:30N 54°33' E 018°30'2 4.9
2017-Aug-15 05:00N 54°32' E 018°34'714.9
2017-Aug-15 04:30N 54°32' E 018°47'917.0
2017-Aug-15 04:00N 54°39' E 018°55'816.6
2017-Aug-15 03:30N 54°47' E 018°49'917.6
2017-Aug-15 03:00N 54°53' E 018°39'917.0
2017-Aug-15 02:30N 54°59' E 018°28'917.2
2017-Aug-15 02:00N 55°04' E 018°16'917.2
2017-Aug-15 01:30N 55°09' E 018°03'9817.3
2017-Aug-14 19:50N 56°02' E 015°38'513.8
2017-Aug-14 19:26N 56°08' E 015°35'3 6.2
2017-Aug-14 19:00N 56°10' E 015°38'0 0.0
2017-Aug-14 18:29N 56°10' E 015°38'0 0.0
2017-Aug-14 17:59N 56°10' E 015°38'0 0.0
2017-Aug-14 17:29N 56°10' E 015°38'0 0.0
2017-Aug-14 17:01N 56°10' E 015°38'4 9.0
2017-Aug-14 16:31N 56°06' E 015°34'10917.7
2017-Aug-14 10:18N 55°05' E 018°15'518.2
2017-Aug-14 10:01N 55°02' E 018°23'917.7
2017-Aug-14 09:31N 54°56' E 018°35'918.0
2017-Aug-14 09:01N 54°49' E 018°45'918.3
2017-Aug-14 08:31N 54°43' E 018°57'816.3
2017-Aug-14 08:01N 54°35' E 018°54'815.6
2017-Aug-14 07:31N 54°32' E 018°42'612.4
2017-Aug-14 07:00N 54°32' E 018°31'1 1.4
2017-Aug-14 06:30N 54°33' E 018°30'0 0.0
2017-Aug-14 06:00N 54°33' E 018°30'0 0.0
2017-Aug-14 05:31N 54°33' E 018°30'2 4.1
2017-Aug-14 05:00N 54°32' E 018°34'714.2
2017-Aug-14 04:31N 54°32' E 018°46'815.7
2017-Aug-14 04:01N 54°38' E 018°54'714.2
2017-Aug-14 03:31N 54°45' E 018°51'816.9
2017-Aug-14 03:00N 54°52' E 018°42'816.7
2017-Aug-14 02:31N 54°58' E 018°32'917.0
2017-Aug-14 02:01N 55°03' E 018°20'817.0
2017-Aug-14 01:31N 55°07' E 018°07'917.0
2017-Aug-14 01:00N 55°12' E 017°55'9616.4
2017-Aug-13 19:09N 56°07' E 015°35'213.8
2017-Aug-13 19:01N 56°09' E 015°37'1 1.8
2017-Aug-13 18:29N 56°10' E 015°38'0 0.0
2017-Aug-13 17:59N 56°10' E 015°38'0 0.0
2017-Aug-13 17:31N 56°10' E 015°38'4 8.7
2017-Aug-13 17:00N 56°06' E 015°34'10617.3
2017-Aug-13 10:50N 55°06' E 018°10'616.9
2017-Aug-13 10:30N 55°03' E 018°18'816.4
2017-Aug-13 10:00N 54°58' E 018°30'816.4
2017-Aug-13 09:31N 54°53' E 018°41'816.8
2017-Aug-13 09:01N 54°47' E 018°50'815.8
2017-Aug-13 08:31N 54°40' E 018°58'816.9
2017-Aug-13 08:01N 54°33' E 018°50'815.3
2017-Aug-13 07:30N 54°32' E 018°37'4 7.5
2017-Aug-13 06:58N 54°33' E 018°30'0 0.0
2017-Aug-13 06:28N 54°33' E 018°30'0 0.0
2017-Aug-13 05:58N 54°33' E 018°30'0 0.0
2017-Aug-13 05:30N 54°33' E 018°30'2 4.3
2017-Aug-13 05:00N 54°32' E 018°34'713.9
2017-Aug-13 04:30N 54°32' E 018°46'815.1
2017-Aug-13 04:00N 54°38' E 018°54'714.8
2017-Aug-13 03:30N 54°45' E 018°53'816.3
2017-Aug-13 03:00N 54°51' E 018°44'816.1
2017-Aug-13 02:30N 54°57' E 018°34'917.1
2017-Aug-13 02:00N 55°02' E 018°22'1017.5
2017-Aug-13 01:25N 55°08' E 018°07'817.5
2017-Aug-13 00:57N 55°12' E 017°55'9616.5
2017-Aug-12 19:07N 56°07' E 015°35'215.1
2017-Aug-12 19:01N 56°09' E 015°37'1 2.5
2017-Aug-12 18:28N 56°10' E 015°38'0 0.0
2017-Aug-12 17:58N 56°10' E 015°38'0 0.0
2017-Aug-12 17:30N 56°10' E 015°38'10815.6
2017-Aug-12 10:37N 55°06' E 018°11'216.3
2017-Aug-12 10:29N 55°04' E 018°14'816.4
2017-Aug-12 10:01N 55°00' E 018°25'917.1
2017-Aug-12 09:31N 54°55' E 018°37'917.3
2017-Aug-12 09:01N 54°49' E 018°47'917.3
2017-Aug-12 08:31N 54°42' E 018°56'815.9
2017-Aug-12 08:01N 54°34' E 018°52'815.2
2017-Aug-12 07:31N 54°32' E 018°40'510.5
2017-Aug-12 07:00N 54°33' E 018°31'0 0.4
2017-Aug-12 06:29N 54°33' E 018°30'0 0.0
2017-Aug-12 05:59N 54°33' E 018°30'0 0.0
2017-Aug-12 05:30N 54°33' E 018°30'2 4.5
2017-Aug-12 05:00N 54°32' E 018°34'815.1
2017-Aug-12 04:31N 54°33' E 018°47'816.3
2017-Aug-12 04:01N 54°39' E 018°55'815.2
2017-Aug-12 03:31N 54°46' E 018°50'816.7
2017-Aug-12 03:01N 54°53' E 018°41'816.5
2017-Aug-12 02:31N 54°59' E 018°32'816.4
2017-Aug-12 02:00N 55°03' E 018°20'917.3
2017-Aug-12 01:31N 55°08' E 018°07'917.3
2017-Aug-12 01:01N 55°13' E 017°54'9616.4
2017-Aug-11 19:11N 56°08' E 015°36'213.3
2017-Aug-11 19:01N 56°10' E 015°37'0 0.7
2017-Aug-11 18:29N 56°10' E 015°38'0 0.0
2017-Aug-11 17:59N 56°10' E 015°38'0 0.0
2017-Aug-11 17:30N 56°10' E 015°38'510.1
2017-Aug-11 17:00N 56°05' E 015°34'815.6
2017-Aug-11 16:30N 56°00' E 015°44'816.6
2017-Aug-11 16:00N 55°56' E 015°57'917.1
2017-Aug-11 15:30N 55°51' E 016°10'917.3
2017-Aug-11 15:00N 55°46' E 016°22'917.1
2017-Aug-11 14:30N 55°41' E 016°35'2716.7
2017-Aug-11 12:52N 55°26' E 017°15'615.9
2017-Aug-11 12:29N 55°23' E 017°24'816.7
2017-Aug-11 12:00N 55°18' E 017°36'816.7
2017-Aug-11 11:30N 55°14' E 017°48'1316.6
2017-Aug-11 10:44N 55°07' E 018°07'716.9
2017-Aug-11 10:19N 55°03' E 018°17'517.0
2017-Aug-11 10:00N 55°00' E 018°25'917.2
2017-Aug-11 09:30N 54°56' E 018°38'917.4
2017-Aug-11 09:00N 54°49' E 018°47'918.1
2017-Aug-11 08:30N 54°42' E 018°58'917.0
2017-Aug-11 08:00N 54°34' E 018°53'815.5
2017-Aug-11 07:30N 54°32' E 018°40'510.4
2017-Aug-11 07:00N 54°32' E 018°31'1 1.1
2017-Aug-11 06:30N 54°33' E 018°30'0 0.0
2017-Aug-11 06:00N 54°33' E 018°30'0 0.0
2017-Aug-11 05:30N 54°33' E 018°30'2 4.7
2017-Aug-11 05:00N 54°32' E 018°34'815.2
2017-Aug-11 04:30N 54°32' E 018°47'816.7
2017-Aug-11 04:00N 54°39' E 018°56'815.4
2017-Aug-11 03:30N 54°46' E 018°49'816.4
2017-Aug-11 03:00N 54°51' E 018°39'816.3
2017-Aug-11 02:30N 54°57' E 018°29'816.7
2017-Aug-11 02:00N 55°03' E 018°18'917.1
2017-Aug-11 01:30N 55°08' E 018°06'917.0
2017-Aug-11 01:00N 55°12' E 017°53'917.1
2017-Aug-11 00:30N 55°17' E 017°40'817.1
2017-Aug-11 00:00N 55°22' E 017°28'2216.7
2017-Aug-10 22:40N 55°34' E 016°55'316.7
2017-Aug-10 22:30N 55°36' E 016°51'1917.0
2017-Aug-10 21:23N 55°46' E 016°23'2417.1
2017-Aug-10 20:00N 55°59' E 015°48'1114.2
2017-Aug-10 19:14N 56°07' E 015°35'211.0
2017-Aug-10 19:01N 56°10' E 015°37'0 0.7
2017-Aug-10 18:28N 56°10' E 015°38'0 0.0
2017-Aug-10 17:58N 56°10' E 015°38'0 0.0
2017-Aug-10 17:31N 56°10' E 015°38'510.0
2017-Aug-10 17:00N 56°05' E 015°34'1115.7
2017-Aug-10 16:19N 55°59' E 015°49'516.6
2017-Aug-10 15:59N 55°56' E 015°58'916.7
2017-Aug-10 15:28N 55°51' E 016°11'816.6
2017-Aug-10 15:00N 55°47' E 016°22'816.6
2017-Aug-10 14:30N 55°42' E 016°34'1117.0
2017-Aug-10 13:53N 55°36' E 016°49'616.7
2017-Aug-10 13:30N 55°33' E 016°59'916.8
2017-Aug-10 12:58N 55°28' E 017°12'817.0
2017-Aug-10 12:30N 55°23' E 017°24'917.2
2017-Aug-10 12:00N 55°18' E 017°36'917.2
2017-Aug-10 11:30N 55°14' E 017°49'816.8
2017-Aug-10 11:00N 55°09' E 018°01'917.1
2017-Aug-10 10:30N 55°05' E 018°14'816.7
2017-Aug-10 10:00N 54°60' E 018°26'816.8
2017-Aug-10 09:30N 54°55' E 018°38'917.4
2017-Aug-10 09:00N 54°48' E 018°47'917.4
2017-Aug-10 08:30N 54°42' E 018°57'815.8
2017-Aug-10 08:00N 54°34' E 018°52'714.4
2017-Aug-10 07:30N 54°32' E 018°40'510.6
2017-Aug-10 07:00N 54°32' E 018°31'1 1.4
2017-Aug-10 06:29N 54°33' E 018°30'0 0.0
2017-Aug-10 05:59N 54°33' E 018°30'0 0.0
2017-Aug-10 05:30N 54°33' E 018°30'2 3.9
2017-Aug-10 05:01N 54°32' E 018°33'815.0
2017-Aug-10 04:30N 54°32' E 018°46'816.4
2017-Aug-10 04:01N 54°39' E 018°55'816.1
2017-Aug-10 03:30N 54°46' E 018°50'917.3
2017-Aug-10 03:01N 54°53' E 018°40'917.0
2017-Aug-10 02:30N 54°59' E 018°29'917.1
2017-Aug-10 02:00N 55°03' E 018°17'917.2
2017-Aug-10 01:30N 55°08' E 018°04'917.1
2017-Aug-10 01:00N 55°13' E 017°52'917.2
2017-Aug-10 00:31N 55°18' E 017°39'917.4
2017-Aug-10 00:00N 55°22' E 017°27'917.1
2017-Aug-09 23:30N 55°27' E 017°14'816.8
2017-Aug-09 23:00N 55°32' E 017°02'816.8
2017-Aug-09 22:30N 55°37' E 016°50'4817.1
2017-Aug-09 19:41N 56°03' E 015°37'512.7
2017-Aug-09 19:17N 56°08' E 015°36'2 8.8
2017-Aug-09 19:00N 56°10' E 015°38'0 0.2
2017-Aug-09 18:30N 56°10' E 015°38'  

Dump ship's entire track history